createdAt,value
2022-08-04T00:01:24.404Z,-25.8
2022-08-04T00:03:26.111Z,-25.6
2022-08-04T00:05:27.918Z,-25.8
2022-08-04T00:07:42.661Z,-25.7
2022-08-04T00:09:30.963Z,-25.6
2022-08-04T00:11:32.385Z,-25.5
2022-08-04T00:13:33.387Z,-25.5
2022-08-04T00:15:35.212Z,-25.6
2022-08-04T00:17:36.320Z,-25.5
2022-08-04T00:19:37.970Z,-25.6
2022-08-04T00:21:39.091Z,-25.8
2022-08-04T00:24:11.321Z,-25.6
2022-08-04T00:25:41.211Z,-26
2022-08-04T00:27:42.745Z,-25.5
2022-08-04T00:29:43.925Z,-25.5
2022-08-04T00:31:53.978Z,-25.7
2022-08-04T00:33:47.172Z,-25.6
2022-08-04T00:35:48.954Z,-25.5
2022-08-04T00:37:50.703Z,-25.9
2022-08-04T00:39:52.447Z,-25.7
2022-08-04T00:41:56.378Z,-25.8
2022-08-04T00:46:00.602Z,-25.6
2022-08-04T00:47:58.256Z,-25.5
2022-08-04T00:49:59.204Z,-25.8
2022-08-04T00:52:30.506Z,-25.8
2022-08-04T00:54:02.128Z,-25.5
2022-08-04T00:56:03.663Z,-25.6
2022-08-04T01:00:06.031Z,-25.7
2022-08-04T01:02:07.577Z,-25.5
2022-08-04T01:04:08.715Z,-25.9
2022-08-04T01:06:10.034Z,-25.6
2022-08-04T01:10:17.076Z,-25.7
2022-08-04T01:12:14.412Z,-25.6
2022-08-04T01:14:15.303Z,-25.5
2022-08-04T01:16:16.403Z,-25.7
2022-08-04T01:18:17.486Z,-25.7
2022-08-04T01:20:19.179Z,-25.5
2022-08-04T01:22:20.852Z,-25.5
2022-08-04T01:24:22.466Z,-25.5
2022-08-04T01:26:42.967Z,-25.6
2022-08-04T01:28:25.122Z,-25.6
2022-08-04T01:30:26.038Z,-25.7
2022-08-04T01:32:27.739Z,-25.6
2022-08-04T01:34:28.829Z,-25.3
2022-08-04T01:36:30.475Z,-25.7
2022-08-04T01:38:31.683Z,-25.8
2022-08-04T01:40:32.961Z,-25.6
2022-08-04T01:42:34.121Z,-25.3
2022-08-04T01:44:35.075Z,-25.8
2022-08-04T01:46:36.572Z,-25.6
2022-08-04T01:48:37.873Z,-25.7
2022-08-04T01:50:39.487Z,-25.6
2022-08-04T01:52:41.162Z,-25.5
2022-08-04T01:54:42.292Z,-25.8
2022-08-04T01:58:45.086Z,-25.5
2022-08-04T02:00:46.028Z,-25.8
2022-08-04T02:02:47.523Z,-25.4
2022-08-04T02:08:51.620Z,-25.8
2022-08-04T02:14:56.234Z,-25.6
2022-08-04T02:16:58.026Z,-25.5
2022-08-04T02:18:59.469Z,-25.8
2022-08-04T02:21:01.026Z,-25.7
2022-08-04T02:25:03.701Z,-25.7
2022-08-04T02:27:04.733Z,-25.8
2022-08-04T02:29:05.998Z,-25.7
2022-08-04T02:31:07.361Z,-25.5
2022-08-04T02:33:08.404Z,-25.6
2022-08-04T02:35:10.067Z,-25.7
2022-08-04T02:37:11.785Z,-25.7
2022-08-04T02:39:12.366Z,-25.5
2022-08-04T02:41:13.382Z,-25.6
2022-08-04T02:43:15.233Z,-25.8
2022-08-04T02:47:17.903Z,-25.7
2022-08-04T02:49:19.509Z,-25.6
2022-08-04T02:51:21.152Z,-25.6
2022-08-04T02:53:22.911Z,-25.6
2022-08-04T02:55:24.155Z,-25.7
2022-08-04T02:57:25.966Z,-25.9
2022-08-04T02:59:26.930Z,-25.8
2022-08-04T03:01:28.612Z,-25.4
2022-08-04T03:03:30.051Z,-25.5
2022-08-04T03:08:16.821Z,-25.7
2022-08-04T03:10:17.713Z,-25.6
2022-08-04T03:12:19.155Z,-25.8
2022-08-04T03:14:20.550Z,-26
2022-08-04T03:18:23.380Z,-25.4
2022-08-04T03:20:24.536Z,-25.8
2022-08-04T03:22:25.932Z,-25.5
2022-08-04T03:24:27.417Z,-25.5
2022-08-04T03:30:30.798Z,-25.6
2022-08-04T03:34:33.710Z,-25.5
2022-08-04T03:36:35.553Z,-25.7
2022-08-04T03:38:36.586Z,-25.7
2022-08-04T03:40:37.890Z,-25.8
2022-08-04T03:44:40.872Z,-25.9
2022-08-04T03:46:41.941Z,-25.7
2022-08-04T03:48:43.264Z,-25.7
2022-08-04T03:50:44.986Z,-25.5
2022-08-04T03:52:47.251Z,-25.6
2022-08-04T03:54:47.309Z,-25.7
2022-08-04T03:56:48.335Z,-25.6
2022-08-04T03:58:49.404Z,-25.6
2022-08-04T04:00:50.351Z,-25.9
2022-08-04T04:02:51.847Z,-26
2022-08-04T04:04:53.037Z,-25.6
2022-08-04T04:06:54.620Z,-25.6
2022-08-04T04:08:55.823Z,-25.9
2022-08-04T04:10:57.513Z,-25.8
2022-08-04T04:12:59.179Z,-25.6
2022-08-04T04:15:00.114Z,-25.8
2022-08-04T04:17:01.158Z,-25.9
2022-08-04T04:19:02.555Z,-25.9
2022-08-04T04:21:04.102Z,-25.3
2022-08-04T04:23:05.004Z,-25.5
2022-08-04T04:25:06.170Z,-25.7
2022-08-04T04:27:07.216Z,-25.7
2022-08-04T04:29:08.167Z,-25.8
2022-08-04T04:31:09.227Z,-25.6
2022-08-04T04:33:10.870Z,-25.7
2022-08-04T04:35:12.752Z,-25.7
2022-08-04T04:37:13.796Z,-25.7
2022-08-04T04:39:15.472Z,-25.8
2022-08-04T04:45:19.971Z,-25.8
2022-08-04T04:47:42.830Z,-25.8
2022-08-04T04:49:21.809Z,-25.7
2022-08-04T04:51:23.028Z,-25.8
2022-08-04T04:53:24.301Z,-25.5
2022-08-04T04:55:25.374Z,-25.9
2022-08-04T04:57:54.845Z,-25.8
2022-08-04T04:59:28.202Z,-25.7
2022-08-04T05:03:31.183Z,-22.5
2022-08-04T05:05:32.697Z,-18.29
2022-08-04T05:11:37.270Z,-9.2
2022-08-04T05:14:33.809Z,-7.8
2022-08-04T05:15:39.457Z,-6.3
2022-08-04T05:17:40.702Z,-1.7
2022-08-04T05:19:41.875Z,-2.4
2022-08-04T05:21:43.429Z,1.5
2022-08-04T05:25:50.039Z,5.8
2022-08-04T05:27:47.692Z,6.5
2022-08-04T05:29:49.467Z,1.5
2022-08-04T05:31:50.770Z,4.8
2022-08-04T05:33:51.833Z,4.19
2022-08-04T05:36:20.916Z,24.8
2022-08-04T05:38:01.102Z,26.6
2022-08-04T05:39:56.874Z,29.6
2022-08-04T05:41:58.510Z,32.5
2022-08-04T05:43:59.435Z,36
2022-08-04T05:46:00.593Z,40.3
2022-08-04T05:48:01.595Z,42.6
2022-08-04T05:50:03.410Z,28.1
2022-08-04T05:52:04.563Z,46.7
2022-08-04T05:54:06.330Z,54
2022-08-04T05:58:09.317Z,73.9
2022-08-04T06:00:38.661Z,72.6
2022-08-04T06:02:12.545Z,71.8
2022-08-04T06:04:14.061Z,71.3
2022-08-04T06:10:18.447Z,69
2022-08-04T06:12:20.018Z,68.3
2022-08-04T06:14:21.478Z,68.19
2022-08-04T06:16:29.416Z,67.1
2022-08-04T06:18:34.383Z,65.9
2022-08-04T06:20:25.910Z,65
2022-08-04T06:22:27.071Z,64.69
2022-08-04T06:24:28.081Z,63.5
2022-08-04T06:26:29.529Z,62.3
2022-08-04T06:28:30.512Z,61.4
2022-08-04T06:30:31.650Z,59.6
2022-08-04T06:32:35.549Z,58.2
2022-08-04T06:34:34.359Z,56.4
2022-08-04T06:36:35.645Z,55
2022-08-04T06:38:36.587Z,53.1
2022-08-04T06:40:37.784Z,52.2
2022-08-04T06:42:38.831Z,50.5
2022-08-04T06:46:40.949Z,46.5
2022-08-04T06:51:23.975Z,42.7
2022-08-04T06:52:44.908Z,40.4
2022-08-04T06:56:47.092Z,36.9
2022-08-04T06:58:48.640Z,34.7
2022-08-04T07:00:49.678Z,33
2022-08-04T07:02:51.400Z,30.5
2022-08-04T07:06:54.407Z,27.2
2022-08-04T07:08:55.224Z,25.7
2022-08-04T07:10:56.041Z,24.2
2022-08-04T07:12:57.096Z,22.2
2022-08-04T07:14:58.289Z,21.4
2022-08-04T07:16:59.242Z,20.9
2022-08-04T07:19:10.241Z,18.29
2022-08-04T07:21:01.891Z,17.29
2022-08-04T07:23:03.126Z,15.9
2022-08-04T07:25:04.551Z,15.3
2022-08-04T07:27:06.061Z,12.8
2022-08-04T07:29:07.011Z,12.6
2022-08-04T07:31:07.905Z,13.3
2022-08-04T07:33:09.462Z,12.1
2022-08-04T07:35:20.072Z,11.4
2022-08-04T07:37:11.774Z,10.4
2022-08-04T07:39:21.992Z,8.6
2022-08-04T07:43:16.173Z,9.1
2022-08-04T07:45:17.877Z,7.5
2022-08-04T07:47:22.170Z,-25.5
2022-08-04T07:49:54.641Z,-25.6
2022-08-04T07:51:20.902Z,-25.7
2022-08-04T07:53:53.661Z,-25.4
2022-08-04T07:55:22.884Z,-25.5
2022-08-04T07:57:40.850Z,-25.6
2022-08-04T07:59:25.372Z,-25.4
2022-08-04T08:01:26.636Z,-25.5
2022-08-04T08:07:30.682Z,-26
2022-08-04T08:09:32.151Z,-25.5
2022-08-04T08:12:34.544Z,-25.6
2022-08-04T08:13:33.851Z,-25.3
2022-08-04T08:15:35.044Z,-25.8
2022-08-04T08:23:39.812Z,-25.4
2022-08-04T08:25:40.555Z,-25.6
2022-08-04T08:27:41.468Z,-25.6
2022-08-04T08:29:42.870Z,-25.6
2022-08-04T08:31:55.864Z,-25.6
2022-08-04T08:33:45.021Z,-25.5
2022-08-04T08:37:47.352Z,-25.6
2022-08-04T08:39:48.483Z,-25.4
2022-08-04T08:41:51.910Z,-25.1
2022-08-04T08:44:00.012Z,-25.4
2022-08-04T08:45:52.112Z,-25.3
2022-08-04T08:48:05.653Z,-25.3
2022-08-04T08:50:01.453Z,-25.3
2022-08-04T08:51:56.615Z,-25.5
2022-08-04T08:53:57.386Z,-25.4
2022-08-04T08:55:58.752Z,-25.6
2022-08-04T08:58:00.725Z,-25.7
2022-08-04T09:00:00.874Z,-25.3
2022-08-04T09:02:02.005Z,-25.5
2022-08-04T09:04:03.066Z,-25.6
2022-08-04T09:06:03.791Z,-25.5
2022-08-04T09:08:05.187Z,-25.6
2022-08-04T09:10:06.847Z,-25.6
2022-08-04T09:12:08.519Z,-25.5
2022-08-04T09:14:09.531Z,-25.2
2022-08-04T09:16:10.747Z,-25.6
2022-08-04T09:22:14.744Z,-25.6
2022-08-04T09:24:36.039Z,-25.4
2022-08-04T09:26:17.695Z,-25.3
2022-08-04T09:28:31.838Z,-25.2
2022-08-04T09:30:20.871Z,-25.9
2022-08-04T09:32:22.399Z,-25.5
2022-08-04T09:34:23.676Z,-25.4
2022-08-04T09:36:25.563Z,-25.4
2022-08-04T09:38:25.541Z,-25.4
2022-08-04T09:40:29.094Z,-25.2
2022-08-04T09:42:29.372Z,-25.3
2022-08-04T09:44:43.266Z,-25.4
2022-08-04T09:46:31.658Z,-25.5
2022-08-04T09:48:32.648Z,-25.3
2022-08-04T09:52:35.726Z,-25.6
2022-08-04T09:53:19.434Z,-25.4
2022-08-04T09:55:21.090Z,-25.7
2022-08-04T09:57:21.744Z,-25.7
2022-08-04T09:59:22.660Z,-25.1
2022-08-04T10:03:26.075Z,-25.6
2022-08-04T10:05:27.666Z,-25.5
2022-08-04T10:07:28.216Z,-25.4
2022-08-04T10:09:29.223Z,-25.7
2022-08-04T10:13:31.377Z,-25.5
2022-08-04T10:15:32.703Z,-25.7
2022-08-04T10:17:33.759Z,-25.4
2022-08-04T10:19:35.299Z,-25.9
2022-08-04T10:23:55.501Z,-25.5
2022-08-04T10:26:05.130Z,-25.6
2022-08-04T10:27:40.117Z,-25.8
2022-08-04T10:29:41.043Z,-25.5
2022-08-04T10:31:42.399Z,-25.6
2022-08-04T10:33:43.139Z,-25.4
2022-08-04T10:35:44.796Z,-25.7
2022-08-04T10:37:54.747Z,-25.7
2022-08-04T10:41:49.665Z,-25.5
2022-08-04T10:45:54.402Z,-25.8
2022-08-04T10:47:53.640Z,-25.5
2022-08-04T10:49:54.415Z,-25.5
2022-08-04T10:51:56.974Z,-25.7
2022-08-04T10:57:58.895Z,-25.6
2022-08-04T11:00:00.355Z,-25.5
2022-08-04T11:02:03.500Z,-25.6
2022-08-04T11:04:02.578Z,-25.5
2022-08-04T11:06:03.636Z,-25.6
2022-08-04T11:08:08.829Z,-25.8
2022-08-04T11:12:08.023Z,-25.4
2022-08-04T11:14:09.027Z,-25.4
2022-08-04T11:16:10.210Z,-25.7
2022-08-04T11:18:16.234Z,-25.4
2022-08-04T11:20:33.883Z,-25.2
2022-08-04T11:22:13.869Z,-25.5
2022-08-04T11:24:15.463Z,-25.5
2022-08-04T11:26:16.614Z,-25.4
2022-08-04T11:28:17.371Z,-25.5
2022-08-04T11:30:18.874Z,-25.6
2022-08-04T11:32:20.028Z,-25.5
2022-08-04T11:34:20.841Z,-25.4
2022-08-04T11:36:22.190Z,-25.7
2022-08-04T11:38:24.219Z,-25.3
2022-08-04T11:40:24.769Z,-25.5
2022-08-04T11:44:26.923Z,-25.8
2022-08-04T11:46:27.647Z,-25.7
2022-08-04T11:48:28.721Z,-25.5
2022-08-04T11:50:29.916Z,-25.5
2022-08-04T11:54:32.598Z,-25.5
2022-08-04T11:56:35.661Z,-25.6
2022-08-04T11:58:35.235Z,-25.4
2022-08-04T12:00:36.112Z,-25.6
2022-08-04T12:02:37.414Z,-25.4
2022-08-04T12:04:38.967Z,-25.4
2022-08-04T12:06:40.348Z,-25.5
2022-08-04T12:08:41.273Z,-25.5
2022-08-04T12:10:42.839Z,-25.3
2022-08-04T12:12:44.331Z,-25.6
2022-08-04T12:14:45.580Z,-25.5
2022-08-04T12:16:46.413Z,-25.2
2022-08-04T12:18:47.373Z,-25.5
2022-08-04T12:20:48.500Z,-25.3
2022-08-04T12:22:49.384Z,-25.5
2022-08-04T12:26:52.216Z,-25.4
2022-08-04T12:29:09.431Z,-25.5
2022-08-04T12:31:00.798Z,-25.5
2022-08-04T12:32:55.884Z,-25.5
2022-08-04T12:34:57.349Z,-25.4
2022-08-04T12:36:58.376Z,-25.5
2022-08-04T12:38:59.542Z,-25.8
2022-08-04T12:41:00.424Z,-25.5
2022-08-04T12:43:01.775Z,-25.7
2022-08-04T12:45:02.495Z,-25.7
2022-08-04T12:47:26.200Z,-25.4
2022-08-04T12:49:05.052Z,-25.5
2022-08-04T12:55:09.163Z,-25.5
2022-08-04T12:57:10.022Z,-25.5
2022-08-04T12:59:12.672Z,-25.7
2022-08-04T13:02:05.846Z,-25.5
2022-08-04T13:03:13.676Z,-25.6
2022-08-04T13:05:16.971Z,-25.5
2022-08-04T13:07:16.167Z,-25.6
2022-08-04T13:09:17.698Z,-25.4
2022-08-04T13:11:18.258Z,-25.6
2022-08-04T13:13:19.528Z,-25.5
2022-08-04T13:15:20.404Z,-25.6
2022-08-04T13:17:21.690Z,-25.6
2022-08-04T13:19:22.242Z,-25.6
2022-08-04T13:21:49.597Z,-25.7
2022-08-04T13:23:24.807Z,-25.6
2022-08-04T13:26:40.922Z,-25.6
2022-08-04T13:27:27.426Z,-25.3
2022-08-04T13:29:58.326Z,-25.6
2022-08-04T13:35:55.039Z,-25.6
2022-08-04T13:37:33.529Z,-25.8
2022-08-04T13:39:35.174Z,-25.8
2022-08-04T13:41:36.171Z,-25.2
2022-08-04T13:43:48.219Z,-25.3
2022-08-04T13:45:38.840Z,-25.3
2022-08-04T13:47:39.796Z,-25.6
2022-08-04T13:49:54.433Z,-25.6
2022-08-04T13:51:57.178Z,61.4
2022-08-04T13:53:44.320Z,60
2022-08-04T13:55:45.194Z,58.5
2022-08-04T13:57:46.675Z,57.1
2022-08-04T13:59:47.874Z,55.6
2022-08-04T14:01:49.319Z,53.7
2022-08-04T14:03:53.731Z,51.8
2022-08-04T14:05:59.082Z,51
2022-08-04T14:07:52.654Z,48.6
2022-08-04T14:10:02.450Z,47.4
2022-08-04T14:12:04.865Z,45.2
2022-08-04T14:13:56.094Z,42.9
2022-08-04T14:16:03.222Z,42
2022-08-04T14:17:58.599Z,39.4
2022-08-04T14:19:59.591Z,37.9
2022-08-04T14:22:00.759Z,36.4
2022-08-04T14:24:02.002Z,34.2
2022-08-04T14:26:02.850Z,33
2022-08-04T14:28:03.577Z,30.8
2022-08-04T14:30:05.256Z,29.4
2022-08-04T14:32:11.638Z,28.2
2022-08-04T14:34:10.194Z,25.9
2022-08-04T14:36:08.716Z,25
2022-08-04T14:38:09.754Z,22.5
2022-08-04T14:40:19.495Z,21.8
2022-08-04T14:42:12.735Z,19.9
2022-08-04T14:44:13.646Z,18.4
2022-08-04T14:46:14.808Z,16.79
2022-08-04T14:48:16.431Z,16.4
2022-08-04T14:50:18.069Z,14.9
2022-08-04T14:54:20.162Z,12.4
2022-08-04T14:56:37.759Z,10.5
2022-08-04T14:58:37.080Z,11.9
2022-08-04T15:02:25.473Z,8.8
2022-08-04T15:06:27.418Z,-25.6
2022-08-04T15:08:29.146Z,-25.2
2022-08-04T15:10:29.790Z,-25.4
2022-08-04T15:12:30.648Z,-25.5
2022-08-04T15:18:33.575Z,-25.5
2022-08-04T15:20:34.691Z,-25.4
2022-08-04T15:22:35.993Z,-25.6
2022-08-04T15:24:37.305Z,-25.5
2022-08-04T15:26:38.476Z,-25.4
2022-08-04T15:28:39.461Z,-25.2
2022-08-04T15:32:42.745Z,-25.4
2022-08-04T15:34:43.794Z,-25.7
2022-08-04T15:36:44.753Z,-25.6
2022-08-04T15:38:45.696Z,-25.4
2022-08-04T15:40:46.812Z,-25.5
2022-08-04T15:42:48.477Z,-25.3
2022-08-04T15:44:49.990Z,-25.3
2022-08-04T15:46:51.220Z,-25.3
2022-08-04T15:48:52.826Z,-25.4
2022-08-04T15:50:54.216Z,-25.3
2022-08-04T15:53:00.805Z,-25.5
2022-08-04T15:54:56.189Z,-25.4
2022-08-04T15:57:01.858Z,-25.5
2022-08-04T15:58:59.010Z,-25.6
2022-08-04T16:01:00.105Z,-25.3
2022-08-04T16:05:02.768Z,-25.5
2022-08-04T16:07:03.457Z,-25.5
2022-08-04T16:09:04.521Z,-25.5
2022-08-04T16:11:06.091Z,-25.4
2022-08-04T16:15:07.826Z,-25.6
2022-08-04T16:17:09.179Z,-25.6
2022-08-04T16:19:10.636Z,-25.6
2022-08-04T16:21:11.394Z,-25.4
2022-08-04T16:23:13.405Z,-25.4
2022-08-04T16:25:13.126Z,-25.5
2022-08-04T16:27:13.984Z,-25.4
2022-08-04T16:29:15.001Z,-25.3
2022-08-04T16:31:16.174Z,-25.4
2022-08-04T16:33:17.045Z,-25.5
2022-08-04T16:35:18.187Z,-25.6
2022-08-04T16:37:19.085Z,-25.6
2022-08-04T16:38:02.650Z,-25.3
2022-08-04T16:42:05.846Z,-25.3
2022-08-04T16:44:07.322Z,-25.7
2022-08-04T16:46:13.593Z,-25.8
2022-08-04T16:48:09.235Z,-25.6
2022-08-04T16:50:10.018Z,-25.7
2022-08-04T16:52:13.640Z,-25.3
2022-08-04T16:54:12.673Z,-25.6
2022-08-04T16:56:14.294Z,-25.5
2022-08-04T16:58:15.524Z,-25.4
2022-08-04T17:00:17.174Z,-25.4
2022-08-04T17:02:18.998Z,-25.6
2022-08-04T17:04:20.330Z,-25.7
2022-08-04T17:10:25.091Z,-25.6
2022-08-04T17:12:25.859Z,-25.9
2022-08-04T17:14:26.947Z,-25.3
2022-08-04T17:16:28.161Z,-25.5
2022-08-04T17:18:29.261Z,-25.6
2022-08-04T17:20:59.249Z,-25.6
2022-08-04T17:24:32.314Z,-25.4
2022-08-04T17:26:39.604Z,-25.5
2022-08-04T17:28:40.056Z,-25.5
2022-08-04T17:30:35.692Z,-25.5
2022-08-04T17:32:36.721Z,-25.5
2022-08-04T17:34:37.750Z,-25.5
2022-08-04T17:36:39.453Z,-25.5
2022-08-04T17:40:41.924Z,-25.6
2022-08-04T17:42:45.458Z,-25.5
2022-08-04T17:44:45.023Z,-25.7
2022-08-04T17:46:48.071Z,-25.3
2022-08-04T17:48:47.599Z,-25.4
2022-08-04T17:50:48.784Z,-25.5
2022-08-04T17:52:50.711Z,-25.6
2022-08-04T17:54:51.328Z,-25.3
2022-08-04T17:56:53.493Z,-25.8
2022-08-04T17:58:54.175Z,-25.7
2022-08-04T18:01:10.561Z,-25.6
2022-08-04T18:02:57.525Z,-25.7
2022-08-04T18:05:05.413Z,-25.6
2022-08-04T18:07:00.248Z,-25.5
2022-08-04T18:09:21.666Z,-25.5
2022-08-04T18:11:02.241Z,-25.6
2022-08-04T18:13:03.554Z,-25.7
2022-08-04T18:15:05.780Z,-25.4
2022-08-04T18:17:17.787Z,-25.7
2022-08-04T18:19:08.532Z,-25.5
2022-08-04T18:21:09.351Z,-25.5
2022-08-04T18:23:10.364Z,-25.6
2022-08-04T18:25:11.582Z,-25.6
2022-08-04T18:29:15.659Z,-25.5
2022-08-04T18:31:16.552Z,-25.5
2022-08-04T18:33:37.957Z,-25.8
2022-08-04T18:35:17.294Z,-25.4
2022-08-04T18:37:18.782Z,-25.3
2022-08-04T18:39:19.407Z,-25.6
2022-08-04T18:41:20.770Z,-25.7
2022-08-04T18:43:28.092Z,-25.6
2022-08-04T18:45:23.458Z,-25.6
2022-08-04T18:49:40.528Z,-25.6
2022-08-04T18:51:30.813Z,-25.7
2022-08-04T18:53:35.191Z,-25.5
2022-08-04T18:55:51.683Z,-25.6
2022-08-04T18:59:31.790Z,-25.5
2022-08-04T19:02:09.519Z,-25.5
2022-08-04T19:03:34.006Z,-25.6
2022-08-04T19:05:36.343Z,-25.5
2022-08-04T19:08:01.601Z,-25.6
2022-08-04T19:11:52.808Z,-25.5
2022-08-04T19:13:40.593Z,-25.7
2022-08-04T19:17:52.914Z,-25.7
2022-08-04T19:21:59.147Z,-25.5
2022-08-04T19:24:09.871Z,-25.9
2022-08-04T19:25:59.719Z,-25.6
2022-08-04T19:27:54.856Z,-25.7
2022-08-04T19:33:55.851Z,-25.8
2022-08-04T19:35:55.500Z,-25.5
2022-08-04T19:38:00.994Z,-25.6
2022-08-04T19:39:57.869Z,-25.5
2022-08-04T19:42:05.050Z,-25.6
2022-08-04T19:44:00.415Z,-25.7
2022-08-04T19:46:01.263Z,-25.7
2022-08-04T19:48:12.373Z,-25.6
2022-08-04T19:50:10.665Z,-25.7
2022-08-04T19:52:04.800Z,-25.5
2022-08-04T19:54:16.608Z,-25.6
2022-08-04T19:56:07.553Z,-25.7
2022-08-04T19:58:08.950Z,-25.4
2022-08-04T20:00:10.143Z,-25.5
2022-08-04T20:02:10.584Z,-25.7
2022-08-04T20:04:11.871Z,-25.4
2022-08-04T20:06:13.235Z,-25.6
2022-08-04T20:10:15.268Z,-25.6
2022-08-04T20:12:16.724Z,-25.6
2022-08-04T20:14:18.044Z,-25.6
2022-08-04T20:16:26.228Z,-25.5
2022-08-04T20:20:21.730Z,-25.7
2022-08-04T20:22:51.170Z,-25.7
2022-08-04T20:24:37.243Z,-25.8
2022-08-04T20:26:25.888Z,-25.8
2022-08-04T20:28:36.684Z,-25.8
2022-08-04T20:30:28.242Z,-25.5
2022-08-04T20:32:28.923Z,-25.5
2022-08-04T20:34:30.623Z,-25.7
2022-08-04T20:36:32.076Z,-25.6
2022-08-04T20:38:34.153Z,-25.6
2022-08-04T20:40:34.376Z,-25.5
2022-08-04T20:42:35.956Z,-25.5
2022-08-04T20:48:40.575Z,-25.8
2022-08-04T20:50:41.699Z,-25.8
2022-08-04T20:52:43.051Z,-25.7
2022-08-04T20:54:48.317Z,-25.7
2022-08-04T20:56:50.851Z,-25.8
2022-08-04T20:58:47.480Z,-25.7
2022-08-04T21:02:50.420Z,-25.8
2022-08-04T21:04:52.218Z,-25.6
2022-08-04T21:06:53.804Z,-25.4
2022-08-04T21:08:57.024Z,-25.3
2022-08-04T21:14:58.483Z,-25.7
2022-08-04T21:16:59.632Z,-25.6
2022-08-04T21:19:00.940Z,-25.7
2022-08-04T21:21:02.493Z,-25.6
2022-08-04T21:23:04.992Z,-25.8
2022-08-04T21:25:04.909Z,-25.6
2022-08-04T21:27:05.885Z,-25.6
2022-08-04T21:29:06.743Z,-25.5
2022-08-04T21:31:10.927Z,-25.5
2022-08-04T21:33:09.957Z,-25.7
2022-08-04T21:35:15.159Z,-25.5
2022-08-04T21:37:12.517Z,-25.7
2022-08-04T21:39:13.392Z,-25.7
2022-08-04T21:41:20.305Z,-25.5
2022-08-04T21:43:15.711Z,-26
2022-08-04T21:45:17.479Z,-25.5
2022-08-04T21:47:22.486Z,-25.6
2022-08-04T21:51:21.875Z,-25.6
2022-08-04T21:53:22.689Z,-25.4
2022-08-04T21:55:24.374Z,-25.8
2022-08-04T21:57:25.987Z,-25.6
2022-08-04T21:59:30.378Z,-25.5
2022-08-04T22:01:51.257Z,-25.5
2022-08-04T22:03:52.246Z,-25.8
2022-08-04T22:05:32.739Z,-25.6
2022-08-04T22:11:44.115Z,-25.7
2022-08-04T22:13:52.181Z,-25.6
2022-08-04T22:17:38.560Z,-25.6
2022-08-04T22:21:45.177Z,-25.6
2022-08-04T22:23:44.937Z,-25.7
2022-08-04T22:27:47.185Z,-25.7
2022-08-04T22:29:46.625Z,-25.7
2022-08-04T22:31:53.405Z,-25.6
2022-08-04T22:33:54.310Z,-25.8
2022-08-04T22:38:05.899Z,-25.5
2022-08-04T22:39:56.096Z,-25.7
2022-08-04T22:42:03.127Z,-25.8
2022-08-04T22:43:56.281Z,-25.6
2022-08-04T22:45:57.438Z,-25.9
2022-08-04T22:47:58.281Z,-25.7
2022-08-04T22:50:13.781Z,-25.8
2022-08-04T22:52:02.822Z,-25.7
2022-08-04T22:54:02.530Z,-25.7
2022-08-04T22:56:07.840Z,-25.7
2022-08-04T22:58:09.273Z,-25.6
2022-08-04T23:00:06.768Z,-25.7
2022-08-04T23:02:07.727Z,-25.7
2022-08-04T23:04:09.047Z,-25.6
2022-08-04T23:06:10.473Z,-25.7
2022-08-04T23:08:11.629Z,-25.6
2022-08-04T23:10:12.758Z,-25.6
2022-08-04T23:12:24.155Z,-25.8
2022-08-04T23:14:15.414Z,-25.7
2022-08-04T23:16:16.934Z,-25.8
2022-08-04T23:18:17.728Z,-25.5
2022-08-04T23:20:23.447Z,-25.6
2022-08-04T23:22:37.212Z,-25.7
2022-08-04T23:23:12.451Z,-26
2022-08-04T23:27:08.039Z,-25.8
2022-08-04T23:29:09.813Z,-25.7
2022-08-04T23:31:10.725Z,-25.9
2022-08-04T23:33:12.500Z,-25.7
2022-08-04T23:35:15.093Z,-25.6
2022-08-04T23:37:15.757Z,-25.7
2022-08-04T23:39:17.072Z,-25.8
2022-08-04T23:41:18.791Z,-25.9
2022-08-04T23:43:20.482Z,-25.6
2022-08-04T23:47:24.012Z,-25.7
2022-08-04T23:49:25.380Z,-25.7
2022-08-04T23:51:26.622Z,-25.5
2022-08-04T23:53:28.295Z,-25.6
2022-08-04T23:55:31.824Z,-25.5
2022-08-04T23:58:05.411Z,-25.4
2022-08-04T23:59:48.965Z,-25.9
